Time;durP1;ratioP1;P1;durP2;ratioP2;P2;SDS_P1;SDS_P2;PMS_P1;PMS_P2;Temp;Humidity;BMP_temperature;BMP_pressure;BME280_temperature;BME280_humidity;BME280_pressure;Samples;Min_cycle;Max_cycle;Signal;HPM_P1;HPM_P2
2022/04/26 03:38:32;;;;;;;12.98;7.18;;;;;;;7.77;100.00;98110.44;5083803;28;20032;-65
2022/04/26 03:40:57;;;;;;;16.17;8.85;;;;;;;7.83;100.00;98115.56;5083627;28;20095;-65
2022/04/26 03:43:23;;;;;;;15.23;8.02;;;;;;;7.86;100.00;98119.88;5083867;28;20025;-65
2022/04/26 03:45:48;;;;;;;15.32;8.27;;;;;;;7.87;100.00;98116.38;5083569;28;20323;-66
2022/04/26 03:48:14;;;;;;;14.45;8.00;;;;;;;7.85;100.00;98126.03;5093305;28;20027;-65
2022/04/26 03:50:39;;;;;;;12.82;8.13;;;;;;;7.92;100.00;98120.66;5103331;28;20011;-65
2022/04/26 03:53:05;;;;;;;16.40;9.27;;;;;;;7.89;100.00;98115.47;5103116;28;20050;-65
2022/04/26 03:55:30;;;;;;;14.00;8.18;;;;;;;7.82;100.00;98121.69;5083971;28;20103;-65
2022/04/26 03:57:57;;;;;;;14.55;7.28;;;;;;;7.83;100.00;98126.03;5084713;28;20024;-65
2022/04/26 04:00:23;;;;;;;14.45;8.10;;;;;;;7.75;100.00;98127.91;5083448;28;20044;-65
2022/04/26 04:02:49;;;;;;;14.25;8.88;;;;;;;7.79;100.00;98129.59;5083750;28;20028;-65
2022/04/26 04:05:14;;;;;;;16.70;9.50;;;;;;;7.77;100.00;98136.63;5083390;28;20211;-66
2022/04/26 04:07:39;;;;;;;17.17;9.20;;;;;;;7.84;100.00;98138.25;5084842;28;20025;-66
2022/04/26 04:10:06;;;;;;;15.23;8.32;;;;;;;7.84;100.00;98137.38;5083388;28;20082;-66
2022/04/26 04:12:31;;;;;;;13.70;7.60;;;;;;;7.83;100.00;98141.75;5084139;28;20143;-66
2022/04/26 04:14:56;;;;;;;16.63;8.77;;;;;;;7.84;100.00;98133.00;5088879;28;20028;-66
2022/04/26 04:17:22;;;;;;;16.63;8.50;;;;;;;7.90;100.00;98138.16;5086974;28;20027;-66
2022/04/26 04:19:47;;;;;;;15.73;9.32;;;;;;;7.80;100.00;98140.94;5086839;28;20027;-66
2022/04/26 04:22:14;;;;;;;15.13;8.60;;;;;;;7.80;100.00;98138.31;5086753;28;20220;-66
2022/04/26 04:24:40;;;;;;;16.10;8.73;;;;;;;7.77;100.00;98152.34;5086763;28;20031;-65
2022/04/26 04:27:05;;;;;;;15.43;7.95;;;;;;;7.83;100.00;98140.88;5086747;28;20084;-65
2022/04/26 04:29:31;;;;;;;15.57;8.60;;;;;;;7.82;100.00;98145.25;5086639;28;20024;-65
2022/04/26 04:31:56;;;;;;;18.27;9.10;;;;;;;7.72;100.00;98154.16;5086640;28;20073;-65
2022/04/26 04:34:22;;;;;;;14.45;7.53;;;;;;;7.63;100.00;98154.28;5086335;28;20197;-65
2022/04/26 04:36:48;;;;;;;16.50;7.13;;;;;;;7.63;100.00;98149.06;5086365;28;20027;-65
2022/04/26 04:39:19;;;;;;;15.57;8.65;;;;;;;7.48;100.00;98154.53;5086421;28;20052;-65
2022/04/26 04:41:46;;;;;;;14.05;7.80;;;;;;;7.34;100.00;98161.72;5086626;28;20064;-65
2022/04/26 04:44:11;;;;;;;16.20;8.68;;;;;;;7.33;100.00;98167.84;5086313;28;20020;-65
2022/04/26 04:46:37;;;;;;;19.20;8.85;;;;;;;7.36;100.00;98173.03;5086272;28;20027;-65
2022/04/26 04:49:02;;;;;;;14.98;8.05;;;;;;;7.35;100.00;98167.81;5086218;28;20250;-65
2022/04/26 04:51:28;;;;;;;14.45;7.60;;;;;;;7.35;100.00;98173.94;5086104;28;20031;-65
2022/04/26 04:53:54;;;;;;;16.58;8.38;;;;;;;7.35;100.00;98166.09;5086390;28;20024;-65
2022/04/26 04:56:19;;;;;;;16.90;8.75;;;;;;;7.46;100.00;98171.13;5086051;28;20021;-65
2022/04/26 04:58:45;;;;;;;16.83;8.65;;;;;;;7.48;100.00;98170.25;5085987;28;20028;-65
2022/04/26 05:01:10;;;;;;;17.10;9.65;;;;;;;7.63;100.00;98169.16;5086210;28;20069;-65
2022/04/26 05:03:36;;;;;;;15.98;8.80;;;;;;;7.74;100.00;98169.84;5085909;28;20095;-65
2022/04/26 05:06:01;;;;;;;17.27;8.73;;;;;;;7.76;100.00;98168.97;5085899;28;20052;-65
2022/04/26 05:08:27;;;;;;;14.23;9.18;;;;;;;7.88;100.00;98171.34;5085860;28;20017;-65
2022/04/26 05:10:52;;;;;;;15.45;8.77;;;;;;;8.10;100.00;98172.72;5085816;28;20043;-65
2022/04/26 05:13:18;;;;;;;13.30;7.13;;;;;;;8.36;100.00;98170.56;5085701;28;20075;-65
2022/04/26 05:15:44;;;;;;;16.13;8.90;;;;;;;8.57;100.00;98175.41;5085856;28;20359;-65
2022/04/26 05:18:12;;;;;;;15.80;8.15;;;;;;;8.50;100.00;98179.06;5086115;28;20055;-65
2022/04/26 05:20:38;;;;;;;14.13;8.30;;;;;;;8.63;100.00;98180.56;5085976;28;20362;-65
2022/04/26 05:25:47;;;;;;;13.05;6.40;;;;;;;9.41;99.58;98178.06;5086319;28;20019;-65
2022/04/26 05:28:13;;;;;;;11.38;6.82;;;;;;;9.37;98.51;98186.03;5086999;28;20016;-65
2022/04/26 05:30:38;;;;;;;17.80;8.15;;;;;;;9.40;97.01;98175.47;5086647;28;20027;-65
2022/04/26 05:33:04;;;;;;;12.15;6.97;;;;;;;9.11;97.89;98180.47;5086747;28;20365;-65
2022/04/26 05:35:29;;;;;;;12.48;7.32;;;;;;;9.16;98.72;98186.47;5086356;28;20052;-65
2022/04/26 05:37:55;;;;;;;15.07;8.35;;;;;;;9.08;98.86;98177.91;5086216;28;20028;-66
2022/04/26 05:40:20;;;;;;;16.10;9.20;;;;;;;8.91;99.82;98185.25;5086318;28;20044;-66
2022/04/26 05:42:45;;;;;;;12.77;8.13;;;;;;;8.83;100.00;98183.66;5086270;28;20088;-66
2022/04/26 05:45:11;;;;;;;14.48;8.90;;;;;;;8.91;100.00;98190.50;5085961;28;20189;-66
2022/04/26 05:47:44;;;;;;;17.83;9.18;;;;;;;8.90;100.00;98178.28;5086070;28;20020;-65
2022/04/26 05:50:10;;;;;;;13.68;8.05;;;;;;;8.90;100.00;98194.03;5085803;28;20021;-65
2022/04/26 05:52:36;;;;;;;15.85;8.90;;;;;;;8.96;100.00;98188.66;5085493;28;20365;-65
2022/04/26 05:55:07;;;;;;;16.20;8.80;;;;;;;9.06;100.00;98192.81;5085252;28;20016;-65
2022/04/26 05:57:36;;;;;;;14.88;8.63;;;;;;;9.03;100.00;98192.88;5085397;28;20020;-65
2022/04/26 06:00:04;;;;;;;14.57;9.32;;;;;;;9.05;100.00;98193.72;5085301;28;20030;-65
2022/04/26 06:02:29;;;;;;;17.33;8.75;;;;;;;9.24;100.00;98197.72;5085696;28;20252;-65
2022/04/26 06:04:55;;;;;;;17.55;10.13;;;;;;;9.36;100.00;98195.66;5085491;28;20020;-65
2022/04/26 06:07:20;;;;;;;14.05;7.95;;;;;;;9.47;100.00;98198.06;5085094;28;20122;-65
2022/04/26 06:09:46;;;;;;;13.45;8.20;;;;;;;9.58;100.00;98201.31;5085018;28;20087;-65
2022/04/26 06:12:12;;;;;;;15.70;9.30;;;;;;;9.79;100.00;98196.47;5085191;28;20020;-65
2022/04/26 06:14:38;;;;;;;13.70;8.80;;;;;;;10.15;98.96;98206.13;5085231;28;20351;-65
2022/04/26 06:17:03;;;;;;;16.33;8.70;;;;;;;10.28;97.78;98201.41;5085770;28;20035;-65
2022/04/26 06:19:29;;;;;;;20.65;8.57;;;;;;;10.14;96.21;98195.63;5085927;28;20024;-65
2022/04/26 06:21:54;;;;;;;15.07;8.77;;;;;;;10.48;96.94;98204.41;5085824;28;20024;-66
2022/04/26 06:24:20;;;;;;;14.38;8.43;;;;;;;10.78;93.97;98199.22;5085986;28;20023;-66
2022/04/26 06:26:45;;;;;;;13.45;8.57;;;;;;;11.57;92.63;98203.06;5086196;28;20020;-66
2022/04/26 06:29:11;;;;;;;13.73;7.85;;;;;;;12.34;88.03;98209.41;5085941;28;20024;-66
2022/04/26 06:31:36;;;;;;;11.70;7.32;;;;;;;13.23;85.27;98203.66;5085853;28;20024;-66
2022/04/26 06:34:02;;;;;;;12.68;7.35;;;;;;;14.01;82.85;98205.00;5085407;28;20046;-66
2022/04/26 06:36:27;;;;;;;11.07;6.97;;;;;;;14.69;78.53;98205.75;5084207;28;20116;-66
2022/04/26 06:38:52;;;;;;;11.18;7.10;;;;;;;14.99;76.28;98201.75;5084847;28;20024;-66
2022/04/26 06:41:18;;;;;;;12.27;7.10;;;;;;;15.29;76.05;98205.72;5084411;28;20040;-66
2022/04/26 06:43:44;;;;;;;13.90;6.30;;;;;;;15.45;73.04;98204.13;5084605;28;20312;-66
2022/04/26 06:46:09;;;;;;;8.55;5.88;;;;;;;16.41;72.59;98210.09;5084220;28;20095;-66
2022/04/26 06:48:35;;;;;;;12.00;6.53;;;;;;;16.56;71.93;98212.06;5084144;28;20043;-66
2022/04/26 06:51:00;;;;;;;10.15;6.50;;;;;;;16.84;71.14;98204.38;5084055;28;20043;-66
2022/04/26 06:53:25;;;;;;;11.60;6.75;;;;;;;16.86;70.54;98202.50;5084015;28;20091;-65
2022/04/26 06:55:51;;;;;;;10.50;6.07;;;;;;;17.52;69.27;98207.94;5084077;28;20024;-66
2022/04/26 06:58:17;;;;;;;10.82;6.95;;;;;;;17.47;68.21;98209.97;5083906;28;20017;-66
2022/04/26 07:00:43;;;;;;;11.18;6.88;;;;;;;17.47;67.45;98210.84;5083916;28;20028;-66
2022/04/26 07:03:08;;;;;;;10.75;6.55;;;;;;;16.14;69.93;98213.25;5083806;28;20096;-66
2022/04/26 07:05:34;;;;;;;10.95;6.97;;;;;;;16.79;70.41;98201.13;5083828;28;20320;-65
2022/04/26 07:07:59;;;;;;;16.45;6.57;;;;;;;17.34;68.53;98215.06;5083899;28;20016;-66
2022/04/26 07:10:28;;;;;;;9.05;6.15;;;;;;;17.93;65.76;98209.19;5083875;28;20028;-66
2022/04/26 07:12:54;;;;;;;10.55;5.95;;;;;;;16.93;66.69;98213.72;5084051;28;20031;-66
2022/04/26 07:15:20;;;;;;;7.60;5.18;;;;;;;17.45;66.14;98219.84;5083872;28;20264;-66
2022/04/26 07:17:45;;;;;;;8.40;5.50;;;;;;;17.50;66.46;98215.16;5083659;28;20312;-66
2022/04/26 07:20:11;;;;;;;9.18;5.65;;;;;;;17.54;66.71;98216.69;5083739;28;20033;-66
2022/04/26 07:22:37;;;;;;;9.77;5.60;;;;;;;17.61;65.85;98218.06;5083784;28;20020;-66
2022/04/26 07:25:06;;;;;;;10.30;5.88;;;;;;;17.31;65.73;98219.69;5083749;28;20028;-66
2022/04/26 07:27:32;;;;;;;13.63;5.72;;;;;;;16.54;67.77;98213.91;5083918;28;20012;-65
2022/04/26 07:29:57;;;;;;;12.35;6.28;;;;;;;15.95;69.71;98218.56;5083758;28;20020;-66
2022/04/26 07:35:10;;;;;;;9.43;5.80;;;;;;;15.41;71.82;98228.22;5083899;28;20038;-66
2022/04/26 07:37:36;;;;;;;9.15;5.97;;;;;;;15.08;73.13;98228.75;5083993;28;20028;-66
2022/04/26 07:40:01;;;;;;;10.63;6.07;;;;;;;14.78;74.27;98237.16;5084121;28;20028;-66
2022/04/26 07:42:27;;;;;;;7.93;4.85;;;;;;;14.37;74.70;98236.19;5084378;28;20027;-66
2022/04/26 07:44:52;;;;;;;7.85;4.88;;;;;;;13.76;75.91;98236.03;5084959;28;20024;-66
2022/04/26 07:47:22;;;;;;;6.43;4.28;;;;;;;13.28;77.12;98235.19;5086734;28;20027;-66
2022/04/26 07:49:48;;;;;;;8.10;4.35;;;;;;;12.94;77.54;98239.00;5088653;28;20215;-66
2022/04/26 07:52:15;;;;;;;10.13;4.85;;;;;;;12.26;79.74;98244.88;5088336;28;20083;-65
2022/04/26 07:54:41;;;;;;;8.00;4.85;;;;;;;13.13;78.58;98236.59;5088449;28;20201;-65
2022/04/26 07:57:07;;;;;;;6.25;4.18;;;;;;;15.12;75.40;98242.72;5088792;28;20024;-66
2022/04/26 07:59:33;;;;;;;8.25;4.00;;;;;;;15.83;70.66;98248.34;5088278;28;20027;-66
2022/04/26 08:01:58;;;;;;;6.63;4.43;;;;;;;16.44;68.21;98255.16;5087841;28;20316;-66
2022/04/26 08:04:24;;;;;;;7.78;3.60;;;;;;;17.30;64.73;98252.56;5087557;28;20265;-66
2022/04/26 08:06:49;;;;;;;5.03;3.28;;;;;;;17.89;64.07;98260.91;5087257;28;20027;-65
2022/04/26 08:09:15;;;;;;;6.88;3.90;;;;;;;17.79;61.30;98265.88;5087046;28;20377;-66
2022/04/26 08:11:40;;;;;;;5.80;3.78;;;;;;;18.51;60.28;98260.97;5086825;28;20134;-66
2022/04/26 08:14:05;;;;;;;7.03;4.30;;;;;;;17.79;63.19;98265.88;5087109;28;20023;-66
2022/04/26 08:16:31;;;;;;;8.25;3.90;;;;;;;18.48;60.75;98269.97;5086775;28;20283;-65
2022/04/26 08:18:56;;;;;;;6.50;4.10;;;;;;;18.46;59.32;98260.38;5086842;28;20020;-66
2022/04/26 08:21:22;;;;;;;6.55;4.05;;;;;;;18.72;60.47;98275.72;5086795;28;20032;-66
2022/04/26 08:29:33;;;;;;;6.53;3.75;;;;;;;19.60;57.56;98276.69;5085007;28;20346;-65
2022/04/26 08:31:58;;;;;;;6.22;4.20;;;;;;;18.31;57.94;98274.50;5086551;28;20020;-66
2022/04/26 08:34:24;;;;;;;8.13;3.88;;;;;;;17.48;59.30;98286.19;5086610;28;20213;-65
2022/04/26 08:36:50;;;;;;;7.35;3.78;;;;;;;18.73;57.35;98290.81;5086317;28;20060;-66
2022/04/26 08:39:15;;;;;;;6.70;3.95;;;;;;;19.59;55.76;98299.88;5086386;28;20043;-66
2022/04/26 08:41:41;;;;;;;8.45;4.18;;;;;;;20.19;53.43;98303.28;5086621;28;20024;-66
2022/04/26 08:44:10;;;;;;;8.43;4.68;;;;;;;19.77;53.47;98293.41;5086279;28;20316;-65
2022/04/26 08:52:08;;;;;;;5.72;3.72;;;;;;;17.00;58.65;98294.88;5086405;28;20254;-65
2022/04/26 08:54:35;;;;;;;6.53;3.70;;;;;;;16.44;60.57;98305.63;5086735;28;20024;-66
2022/04/26 08:57:01;;;;;;;9.05;4.82;;;;;;;16.16;62.06;98309.59;5086688;28;20017;-66
2022/04/26 08:59:27;;;;;;;6.32;4.03;;;;;;;15.93;62.08;98299.19;5086159;28;20043;-66
2022/04/26 09:02:15;;;;;;;7.40;4.50;;;;;;;16.10;63.24;98307.25;5086427;28;20020;-66
2022/04/26 09:04:41;;;;;;;9.15;4.53;;;;;;;17.37;60.87;98305.34;5086490;28;20020;-66
2022/04/26 09:07:10;;;;;;;12.07;5.70;;;;;;;17.78;58.64;98304.06;5086121;28;20023;-66
2022/04/26 09:09:39;;;;;;;9.02;4.72;;;;;;;18.55;57.70;98315.81;5086307;28;20193;-66
2022/04/26 09:12:09;;;;;;;6.68;4.07;;;;;;;19.62;55.25;98320.19;5085746;28;20032;-66
2022/04/26 09:14:39;;;;;;;6.53;3.67;;;;;;;19.62;51.46;98301.50;5085752;28;20020;-66
2022/04/26 09:17:12;;;;;;;7.13;4.38;;;;;;;20.25;51.64;98319.75;5085879;28;20016;-66
2022/04/26 09:19:48;;;;;;;8.32;4.90;;;;;;;20.09;53.01;98312.78;5085627;28;20059;-66
2022/04/26 09:22:21;;;;;;;7.85;4.93;;;;;;;20.57;53.51;98323.91;5085588;28;20028;-65
2022/04/26 09:25:05;;;;;;;8.45;4.55;;;;;;;19.88;53.48;98314.97;5086113;28;20181;-66
2022/04/26 09:27:34;;;;;;;7.22;4.90;;;;;;;19.94;55.65;98325.28;5085467;28;20320;-66
2022/04/26 09:30:09;;;;;;;12.50;6.13;;;;;;;20.22;53.55;98330.66;5085399;28;20028;-65
2022/04/26 09:32:46;;;;;;;7.82;5.15;;;;;;;19.99;52.06;98327.69;5085408;28;20025;-65
2022/04/26 09:35:18;;;;;;;9.13;5.18;;;;;;;20.24;52.16;98328.75;5085313;28;20232;-65
2022/04/26 09:37:44;;;;;;;8.52;4.38;;;;;;;20.43;51.95;98331.97;5085171;28;20030;-65
2022/04/26 09:40:11;;;;;;;9.05;5.28;;;;;;;19.70;51.86;98324.09;5085237;28;20272;-66
2022/04/26 09:42:37;;;;;;;6.45;3.88;;;;;;;18.73;54.15;98336.13;5085165;28;20035;-65
2022/04/26 09:45:14;;;;;;;7.57;3.70;;;;;;;18.13;52.64;98324.34;5085144;28;20268;-65
2022/04/26 09:47:41;;;;;;;6.07;3.70;;;;;;;18.70;53.30;98330.97;5085383;28;20017;-65
2022/04/26 09:50:09;;;;;;;7.65;4.75;;;;;;;19.17;54.31;98326.41;5085299;28;20024;-65
2022/04/26 09:52:35;;;;;;;7.85;5.00;;;;;;;17.72;60.89;98330.16;5084995;28;20064;-65
2022/04/26 09:55:01;;;;;;;7.93;5.00;;;;;;;17.23;61.36;98316.72;5085326;28;20031;-66
2022/04/26 09:57:31;;;;;;;7.45;4.47;;;;;;;17.11;59.69;98324.44;5085435;28;20024;-65
2022/04/26 09:59:59;;;;;;;5.20;3.28;;;;;;;16.81;58.04;98332.13;5085595;28;20070;-65
2022/04/26 10:02:30;;;;;;;7.85;3.65;;;;;;;16.75;58.03;98337.75;5085802;28;20095;-65
2022/04/26 10:05:01;;;;;;;6.70;3.53;;;;;;;17.15;56.13;98332.19;5085523;28;20020;-65
2022/04/26 10:07:31;;;;;;;5.35;3.03;;;;;;;17.02;56.54;98333.72;5085346;28;20088;-65
2022/04/26 10:09:57;;;;;;;6.43;3.92;;;;;;;17.10;56.47;98336.88;5085203;28;20112;-65
2022/04/26 10:12:23;;;;;;;7.15;4.20;;;;;;;17.01;58.92;98334.69;5085292;28;20331;-65
2022/04/26 10:14:50;;;;;;;5.10;3.30;;;;;;;17.06;58.45;98332.63;5085334;28;20021;-65
2022/04/26 10:17:19;;;;;;;5.95;4.05;;;;;;;17.14;57.28;98338.44;5085011;28;20327;-65
2022/04/26 10:19:44;;;;;;;6.20;4.05;;;;;;;16.70;57.83;98342.44;5084783;28;20024;-65
2022/04/26 10:22:16;;;;;;;7.95;3.47;;;;;;;16.46;60.02;98340.94;5085083;28;20020;-65
2022/04/26 10:25:09;;;;;;;6.95;3.45;;;;;;;16.09;61.17;98340.91;5084980;28;20020;-65
2022/04/26 10:27:35;;;;;;;5.78;3.03;;;;;;;16.12;62.13;98346.06;5082117;28;20267;-65
2022/04/26 10:30:00;;;;;;;9.65;3.47;;;;;;;15.97;62.01;98345.91;5085206;28;20025;-66
2022/04/26 10:32:31;;;;;;;5.65;3.20;;;;;;;15.85;61.46;98342.00;5085206;28;20020;-64
2022/04/26 10:35:25;;;;;;;5.72;3.08;;;;;;;15.45;61.69;98347.38;5085066;28;20052;-65
2022/04/26 10:38:12;;;;;;;4.32;2.88;;;;;;;15.45;60.01;98360.63;5084372;28;20067;-65
2022/04/26 10:41:04;;;;;;;7.00;2.33;;;;;;;16.17;58.86;98365.28;5083709;28;20040;-65
2022/04/26 10:43:29;;;;;;;3.25;2.03;;;;;;;17.06;57.85;98377.00;5082063;28;20104;-65
2022/04/26 10:46:15;;;;;;;5.28;2.42;;;;;;;17.49;55.06;98367.78;5085349;28;20032;-65
2022/04/26 10:48:41;;;;;;;4.10;2.63;;;;;;;18.11;54.79;98371.53;5085644;28;20016;-65
2022/04/26 10:51:33;;;;;;;4.60;2.97;;;;;;;17.93;53.55;98364.50;5084841;28;20215;-65
2022/04/26 10:53:59;;;;;;;4.65;2.72;;;;;;;16.84;57.74;98368.34;5085166;28;20021;-65
2022/04/26 10:56:24;;;;;;;5.68;2.17;;;;;;;16.47;57.96;98376.34;5085181;28;20036;-65
2022/04/26 10:58:51;;;;;;;4.30;2.28;;;;;;;15.90;58.29;98366.56;5085328;28;20027;-65
2022/04/26 11:01:17;;;;;;;2.80;2.25;;;;;;;15.66;60.20;98370.28;5084973;28;20021;-65
2022/04/26 11:03:55;;;;;;;2.55;1.90;;;;;;;15.53;63.40;98376.22;5084641;28;20021;-65
2022/04/26 11:06:42;;;;;;;4.68;2.05;;;;;;;15.97;65.35;98383.94;5084739;28;20024;-65
2022/04/26 11:09:15;;;;;;;3.20;1.75;;;;;;;15.60;64.34;98390.94;5084916;28;20070;-65
2022/04/26 11:11:55;;;;;;;3.10;1.70;;;;;;;15.10;65.32;98383.25;5084530;28;20024;-65
2022/04/26 11:14:21;;;;;;;2.75;1.48;;;;;;;15.89;63.94;98386.09;5085035;28;20334;-65
2022/04/26 11:16:55;;;;;;;3.38;1.95;;;;;;;15.91;62.57;98389.50;5084984;28;20021;-65
2022/04/26 11:19:32;;;;;;;1.85;1.40;;;;;;;16.52;62.50;98393.78;5084938;28;20088;-65
2022/04/26 11:22:14;;;;;;;2.50;1.48;;;;;;;17.24;59.88;98395.56;5086236;28;20024;-65
2022/04/26 11:30:10;;;;;;;4.95;1.83;;;;;;;15.33;63.86;98384.09;5088409;28;20355;-65
2022/04/26 11:32:42;;;;;;;2.83;1.70;;;;;;;14.94;62.71;98386.63;5088862;28;20027;-65
2022/04/26 11:35:09;;;;;;;2.72;1.40;;;;;;;15.08;63.94;98406.34;5088741;28;20044;-65
2022/04/26 11:37:43;;;;;;;1.88;1.30;;;;;;;14.18;62.19;98393.16;5087921;28;20028;-65
2022/04/26 11:40:10;;;;;;;2.20;1.50;;;;;;;13.57;64.12;98399.78;5087583;28;20020;-65
2022/04/26 11:42:35;;;;;;;1.88;1.20;;;;;;;13.96;64.32;98402.78;5087557;28;20025;-65
2022/04/26 11:45:06;;;;;;;2.70;1.48;;;;;;;14.61;65.79;98409.16;5087430;28;20050;-65
2022/04/26 11:47:50;;;;;;;2.97;1.67;;;;;;;14.50;64.01;98406.06;5087356;28;20373;-65
2022/04/26 11:50:24;;;;;;;2.85;1.67;;;;;;;15.21;63.42;98401.38;5087325;28;20031;-65
2022/04/26 11:52:53;;;;;;;3.67;2.08;;;;;;;16.04;63.27;98411.91;5087582;28;20027;-65
2022/04/26 11:55:21;;;;;;;3.05;1.90;;;;;;;15.85;64.40;98410.16;5087873;28;20020;-65
2022/04/26 11:57:47;;;;;;;2.88;1.80;;;;;;;15.92;63.73;98407.19;5087909;28;20338;-65
2022/04/26 12:00:17;;;;;;;4.68;2.30;;;;;;;15.72;62.26;98404.50;5087447;28;20259;-65
2022/04/26 12:02:45;;;;;;;4.30;2.10;;;;;;;15.71;63.65;98408.09;5087831;28;20219;-65
2022/04/26 12:05:12;;;;;;;7.30;2.90;;;;;;;15.40;60.32;98413.00;5087790;28;20092;-65
2022/04/26 12:07:38;;;;;;;4.00;2.28;;;;;;;15.51;60.05;98410.75;5087467;28;20017;-65
2022/04/26 12:10:24;;;;;;;3.75;2.30;;;;;;;15.85;62.03;98400.41;5087286;28;20044;-65
2022/04/26 12:12:57;;;;;;;3.53;2.28;;;;;;;15.92;62.87;98399.22;5087809;28;20215;-65
2022/04/26 12:15:40;;;;;;;3.90;2.28;;;;;;;16.34;62.57;98405.25;5087822;28;20016;-65
2022/04/26 12:18:07;;;;;;;4.72;2.67;;;;;;;16.27;60.28;98411.78;5087213;28;20027;-65
2022/04/26 12:20:35;;;;;;;5.57;2.88;;;;;;;15.72;60.17;98409.81;5087335;28;20031;-65
2022/04/26 12:23:05;;;;;;;6.45;2.60;;;;;;;15.56;60.70;98398.16;5087599;28;20020;-65
2022/04/26 12:25:33;;;;;;;6.13;3.00;;;;;;;15.22;61.86;98402.25;5087114;28;20016;-65
2022/04/26 12:28:08;;;;;;;6.13;3.22;;;;;;;15.67;60.23;98401.22;5086953;28;20016;-65
2022/04/26 12:30:37;;;;;;;4.57;2.80;;;;;;;16.00;59.29;98398.84;5086708;28;20020;-65
2022/04/26 12:33:05;;;;;;;5.32;2.70;;;;;;;15.64;58.77;98411.97;5085577;28;20024;-65
2022/04/26 12:35:31;;;;;;;4.63;2.97;;;;;;;15.62;58.53;98411.16;5086722;28;20032;-65
2022/04/26 12:38:09;;;;;;;3.70;2.65;;;;;;;15.88;58.33;98408.22;5087229;28;20020;-65
2022/04/26 12:40:36;;;;;;;6.25;3.20;;;;;;;16.36;64.44;98410.50;5087717;28;20028;-65
2022/04/26 12:43:02;;;;;;;5.45;3.15;;;;;;;16.00;56.97;98412.13;5087682;28;20024;-65
2022/04/26 12:45:28;;;;;;;5.03;2.80;;;;;;;15.86;59.29;98402.13;5087337;28;20391;-65
2022/04/26 12:51:21;;;;;;;8.48;3.30;;;;;;;15.86;56.46;98401.28;5084887;28;20035;-65
2022/04/26 12:53:48;;;;;;;7.05;4.07;;;;;;;15.37;59.50;98407.81;5086727;28;20021;-65
2022/04/26 12:56:14;;;;;;;10.45;3.92;;;;;;;15.33;59.31;98405.31;5086768;28;20025;-65
2022/04/26 12:58:44;;;;;;;6.70;4.32;;;;;;;15.18;59.52;98412.13;5087029;28;20077;-65
2022/04/26 13:01:10;;;;;;;7.00;4.10;;;;;;;15.18;61.23;98411.28;5087345;28;20047;-65
2022/04/26 13:03:37;;;;;;;6.97;4.10;;;;;;;14.88;61.23;98414.22;5086698;28;20035;-65
2022/04/26 13:06:09;;;;;;;11.35;5.28;;;;;;;14.58;62.48;98398.66;5086433;28;20215;-65
2022/04/26 13:08:35;;;;;;;8.35;4.88;;;;;;;14.56;62.95;98408.47;5085971;28;20022;-65
2022/04/26 13:11:01;;;;;;;10.85;5.45;;;;;;;14.94;61.11;98402.53;5086102;28;20028;-65
2022/04/26 13:13:27;;;;;;;9.05;5.20;;;;;;;14.86;62.97;98404.59;5085980;28;20138;-65
2022/04/26 13:15:53;;;;;;;7.15;4.20;;;;;;;15.09;60.11;98417.78;5086105;28;20020;-65
2022/04/26 13:18:18;;;;;;;16.45;7.75;;;;;;;15.23;65.64;98411.00;5085733;28;20212;-65
2022/04/26 13:20:47;;;;;;;17.15;8.18;;;;;;;15.21;65.71;98406.69;5085805;28;20021;-65
2022/04/26 13:23:14;;;;;;;12.75;7.57;;;;;;;15.29;67.34;98414.34;5085745;28;20270;-65
2022/04/26 13:25:41;;;;;;;13.52;6.72;;;;;;;15.39;65.95;98421.88;5085631;28;20220;-65
2022/04/26 13:28:07;;;;;;;11.68;6.80;;;;;;;15.37;65.72;98418.41;5085669;28;20061;-65
2022/04/26 13:30:33;;;;;;;9.23;5.45;;;;;;;15.63;64.58;98418.16;5085508;28;20031;-65
2022/04/26 13:32:59;;;;;;;8.57;5.13;;;;;;;15.81;62.90;98406.78;5085479;28;20256;-65
2022/04/26 13:35:27;;;;;;;10.60;5.95;;;;;;;15.85;62.63;98415.47;5085458;28;20043;-65
2022/04/26 13:37:55;;;;;;;11.60;6.65;;;;;;;16.09;63.70;98409.06;5085970;28;20016;-65
2022/04/26 13:40:21;;;;;;;9.98;5.75;;;;;;;16.42;63.73;98411.06;5086400;28;20017;-65
2022/04/26 13:42:47;;;;;;;10.02;5.97;;;;;;;16.52;62.59;98415.03;5086746;28;20024;-65
2022/04/26 13:45:13;;;;;;;11.10;6.30;;;;;;;16.59;62.13;98411.19;5086509;28;20057;-65
2022/04/26 13:47:39;;;;;;;11.68;5.82;;;;;;;16.49;61.55;98417.84;5086712;28;20084;-65
2022/04/26 13:50:08;;;;;;;10.95;6.47;;;;;;;16.34;63.38;98415.00;5086339;28;20317;-65
2022/04/26 13:52:34;;;;;;;10.07;6.00;;;;;;;16.19;60.11;98416.56;5086079;28;20080;-65
2022/04/26 13:54:59;;;;;;;8.32;5.18;;;;;;;15.94;59.79;98412.38;5086165;28;20086;-65
2022/04/26 13:57:25;;;;;;;9.48;5.35;;;;;;;15.62;57.08;98410.28;5085432;28;20020;-65
2022/04/26 13:59:50;;;;;;;8.77;5.22;;;;;;;15.43;59.42;98423.47;5085552;28;20020;-65
2022/04/26 14:02:16;;;;;;;10.43;5.50;;;;;;;14.99;62.41;98440.28;5085106;28;20339;-65
2022/04/26 14:04:42;;;;;;;10.27;5.90;;;;;;;13.94;66.02;98454.91;5084727;28;20093;-65
2022/04/26 14:07:08;;;;;;;10.90;6.85;;;;;;;13.46;76.31;98467.16;5084716;28;20020;-65
2022/04/26 14:09:34;;;;;;;13.13;7.55;;;;;;;12.72;80.26;98475.69;5084890;28;20308;-65
2022/04/26 14:12:00;;;;;;;11.48;6.93;;;;;;;12.22;82.44;98478.91;5084900;28;20028;-64
2022/04/26 14:22:41;;;;;;;12.85;6.82;;;;;;;10.82;91.53;98494.81;5084465;28;20027;-64
2022/04/26 14:25:10;;;;;;;10.45;5.38;;;;;;;10.78;89.82;98495.78;5084707;28;20050;-65
2022/04/26 14:27:37;;;;;;;12.18;6.85;;;;;;;10.70;89.27;98495.13;5084609;28;20012;-65
2022/04/26 14:30:05;;;;;;;13.27;6.82;;;;;;;10.78;91.29;98499.31;5084341;28;20021;-65
2022/04/26 14:32:30;;;;;;;12.27;6.43;;;;;;;10.78;89.55;98485.25;5084568;28;20028;-65
2022/04/26 14:34:55;;;;;;;12.18;5.93;;;;;;;10.95;88.47;98491.03;5084127;28;20423;-65
2022/04/26 14:37:22;;;;;;;12.73;6.30;;;;;;;11.03;88.82;98478.53;5084177;28;20051;-65
2022/04/26 14:39:48;;;;;;;11.48;5.88;;;;;;;11.17;90.98;98481.69;5084201;28;20027;-65
2022/04/26 14:42:14;;;;;;;15.18;6.72;;;;;;;11.34;91.87;98489.19;5084213;28;20087;-65
2022/04/26 14:44:39;;;;;;;13.43;6.32;;;;;;;11.56;91.19;98491.28;5084194;28;20020;-65
2022/04/26 14:47:06;;;;;;;14.57;6.78;;;;;;;11.83;90.16;98490.56;5084104;28;20016;-65
2022/04/26 14:49:33;;;;;;;13.75;6.85;;;;;;;12.07;89.74;98486.41;5084028;28;20027;-65
2022/04/26 14:51:59;;;;;;;14.88;6.25;;;;;;;12.27;89.93;98482.31;5084186;28;20027;-65
2022/04/26 14:54:24;;;;;;;11.75;6.22;;;;;;;12.54;89.51;98486.81;5084314;28;20024;-65
2022/04/26 14:56:50;;;;;;;11.85;6.00;;;;;;;12.59;87.03;98478.72;5083657;28;20051;-65
2022/04/26 14:59:17;;;;;;;9.73;5.50;;;;;;;12.84;86.05;98488.50;5084534;28;20020;-65
2022/04/26 15:01:48;;;;;;;10.38;5.78;;;;;;;13.12;86.43;98487.66;5084564;28;20059;-65
2022/04/26 15:04:14;;;;;;;10.18;5.15;;;;;;;13.19;86.71;98491.88;5084739;28;20046;-65
2022/04/26 15:06:39;;;;;;;12.57;6.10;;;;;;;13.18;85.75;98490.13;5084724;28;20276;-65
2022/04/26 15:16:37;;;;;;;9.85;5.32;;;;;;;13.17;83.44;98498.97;5084283;28;20023;-65
2022/04/26 15:17:18;;;;;;;5.10;3.28;;;;;;;11.84;77.03;98555.63;5083780;28;20418;-65
2022/04/26 15:19:43;;;;;;;5.85;2.88;;;;;;;10.89;80.15;98549.09;5083841;28;20024;-65
2022/04/26 15:22:11;;;;;;;3.85;2.35;;;;;;;10.69;82.91;98546.00;5083770;28;20025;-65
2022/04/26 15:24:36;;;;;;;4.47;2.63;;;;;;;10.26;83.98;98547.78;5083745;28;20323;-65
2022/04/26 15:27:02;;;;;;;3.60;2.55;;;;;;;10.26;84.59;98550.41;5083762;28;20021;-65
2022/04/26 15:29:27;;;;;;;4.65;2.60;;;;;;;10.15;84.33;98547.13;5083717;28;20091;-65
2022/04/26 15:31:52;;;;;;;2.90;2.10;;;;;;;9.84;87.05;98551.19;5083701;28;20377;-65
2022/04/26 15:34:18;;;;;;;4.15;2.00;;;;;;;9.61;88.96;98548.06;5083634;28;20027;-65
2022/04/26 15:36:43;;;;;;;6.25;3.00;;;;;;;9.63;91.80;98548.91;5083419;28;20216;-65
2022/04/26 15:39:08;;;;;;;3.65;2.13;;;;;;;9.75;90.25;98553.97;5083610;28;20070;-65
2022/04/26 15:41:34;;;;;;;5.00;2.47;;;;;;;9.84;91.84;98551.19;5083556;28;20022;-65
2022/04/26 15:44:01;;;;;;;2.70;1.75;;;;;;;10.11;91.12;98561.22;5083676;28;20216;-65
2022/04/26 15:46:26;;;;;;;5.15;2.42;;;;;;;10.11;91.24;98561.22;5083779;28;20094;-65
2022/04/26 15:48:53;;;;;;;4.03;2.10;;;;;;;10.10;91.12;98555.09;5083778;28;20320;-65